sensor_id;sensor_type;location;lat;lon;timestamp;temperature;humidity
75130;HTU21D;63703;44.716;37.846;2023-01-30T00:01:52;6.40;81.89
75130;HTU21D;63703;44.716;37.846;2023-01-30T00:04:18;6.40;82.08
75130;HTU21D;63703;44.716;37.846;2023-01-30T00:06:44;6.38;82.21
75130;HTU21D;63703;44.716;37.846;2023-01-30T00:09:12;6.34;82.46
75130;HTU21D;63703;44.716;37.846;2023-01-30T00:11:39;6.31;82.57
75130;HTU21D;63703;44.716;37.846;2023-01-30T00:14:05;6.28;82.80
75130;HTU21D;63703;44.716;37.846;2023-01-30T00:16:31;6.25;82.83
75130;HTU21D;63703;44.716;37.846;2023-01-30T00:18:57;6.24;82.81
75130;HTU21D;63703;44.716;37.846;2023-01-30T00:21:23;6.19;82.81
75130;HTU21D;63703;44.716;37.846;2023-01-30T00:23:49;6.17;82.76
75130;HTU21D;63703;44.716;37.846;2023-01-30T00:26:15;6.15;82.53
75130;HTU21D;63703;44.716;37.846;2023-01-30T00:28:41;6.19;82.43
75130;HTU21D;63703;44.716;37.846;2023-01-30T00:31:07;6.16;82.30
75130;HTU21D;63703;44.716;37.846;2023-01-30T00:33:35;6.22;82.15
75130;HTU21D;63703;44.716;37.846;2023-01-30T00:36:01;6.19;82.17
75130;HTU21D;63703;44.716;37.846;2023-01-30T00:38:27;6.21;82.13
75130;HTU21D;63703;44.716;37.846;2023-01-30T00:40:53;6.22;82.30
75130;HTU21D;63703;44.716;37.846;2023-01-30T00:43:19;6.21;82.19
75130;HTU21D;63703;44.716;37.846;2023-01-30T00:46:22;6.21;82.29
75130;HTU21D;63703;44.716;37.846;2023-01-30T00:49:08;6.20;82.31
75130;HTU21D;63703;44.716;37.846;2023-01-30T00:51:34;6.19;82.43
75130;HTU21D;63703;44.716;37.846;2023-01-30T00:54:00;6.19;82.51
75130;HTU21D;63703;44.716;37.846;2023-01-30T00:56:25;6.20;82.52
75130;HTU21D;63703;44.716;37.846;2023-01-30T00:58:52;6.21;82.61
75130;HTU21D;63703;44.716;37.846;2023-01-30T01:01:17;6.17;82.50
75130;HTU21D;63703;44.716;37.846;2023-01-30T01:03:44;6.17;82.42
75130;HTU21D;63703;44.716;37.846;2023-01-30T01:06:09;6.19;82.33
75130;HTU21D;63703;44.716;37.846;2023-01-30T01:08:35;6.19;82.25
75130;HTU21D;63703;44.716;37.846;2023-01-30T01:11:02;6.19;82.21
75130;HTU21D;63703;44.716;37.846;2023-01-30T01:13:28;6.20;82.37
75130;HTU21D;63703;44.716;37.846;2023-01-30T01:15:53;6.17;82.45
75130;HTU21D;63703;44.716;37.846;2023-01-30T01:18:19;6.23;82.86
75130;HTU21D;63703;44.716;37.846;2023-01-30T01:20:45;6.19;82.65
75130;HTU21D;63703;44.716;37.846;2023-01-30T01:23:11;6.20;82.52
75130;HTU21D;63703;44.716;37.846;2023-01-30T01:25:37;6.17;82.52
75130;HTU21D;63703;44.716;37.846;2023-01-30T01:28:05;6.20;82.49
75130;HTU21D;63703;44.716;37.846;2023-01-30T01:30:31;6.20;82.73
75130;HTU21D;63703;44.716;37.846;2023-01-30T01:32:57;6.20;82.65
75130;HTU21D;63703;44.716;37.846;2023-01-30T01:35:23;6.22;82.22
75130;HTU21D;63703;44.716;37.846;2023-01-30T01:37:53;6.23;81.97
75130;HTU21D;63703;44.716;37.846;2023-01-30T01:40:21;6.22;81.84
75130;HTU21D;63703;44.716;37.846;2023-01-30T01:43:20;6.21;81.64
75130;HTU21D;63703;44.716;37.846;2023-01-30T01:45:50;6.17;81.52
75130;HTU21D;63703;44.716;37.846;2023-01-30T01:48:33;6.21;81.33
75130;HTU21D;63703;44.716;37.846;2023-01-30T01:51:09;6.20;81.14
75130;HTU21D;63703;44.716;37.846;2023-01-30T01:53:40;6.19;81.05
75130;HTU21D;63703;44.716;37.846;2023-01-30T01:56:09;6.19;80.94
75130;HTU21D;63703;44.716;37.846;2023-01-30T01:58:48;6.22;80.75
75130;HTU21D;63703;44.716;37.846;2023-01-30T02:01:16;6.22;80.69
75130;HTU21D;63703;44.716;37.846;2023-01-30T02:03:49;6.24;80.37
75130;HTU21D;63703;44.716;37.846;2023-01-30T02:06:17;6.22;80.40
75130;HTU21D;63703;44.716;37.846;2023-01-30T02:08:50;6.24;80.45
75130;HTU21D;63703;44.716;37.846;2023-01-30T02:11:46;6.25;80.43
75130;HTU21D;63703;44.716;37.846;2023-01-30T02:14:14;6.26;80.14
75130;HTU21D;63703;44.716;37.846;2023-01-30T02:16:43;6.26;80.13
75130;HTU21D;63703;44.716;37.846;2023-01-30T02:19:49;6.25;80.26
75130;HTU21D;63703;44.716;37.846;2023-01-30T02:25:12;6.20;80.44
75130;HTU21D;63703;44.716;37.846;2023-01-30T02:30:41;6.14;80.73
75130;HTU21D;63703;44.716;37.846;2023-01-30T02:33:11;6.09;80.71
75130;HTU21D;63703;44.716;37.846;2023-01-30T02:35:57;6.10;80.90
75130;HTU21D;63703;44.716;37.846;2023-01-30T02:44:17;6.01;80.88
75130;HTU21D;63703;44.716;37.846;2023-01-30T02:47:07;5.98;80.92
75130;HTU21D;63703;44.716;37.846;2023-01-30T02:49:41;5.96;80.94
75130;HTU21D;63703;44.716;37.846;2023-01-30T02:52:11;5.95;80.99
75130;HTU21D;63703;44.716;37.846;2023-01-30T02:54:38;5.95;80.97
75130;HTU21D;63703;44.716;37.846;2023-01-30T02:57:20;5.97;81.09
75130;HTU21D;63703;44.716;37.846;2023-01-30T02:59:56;5.95;80.98
75130;HTU21D;63703;44.716;37.846;2023-01-30T03:08:07;5.94;80.88
75130;HTU21D;63703;44.716;37.846;2023-01-30T03:16:29;5.85;80.72
75130;HTU21D;63703;44.716;37.846;2023-01-30T03:19:00;5.85;80.65
75130;HTU21D;63703;44.716;37.846;2023-01-30T03:21:26;5.84;80.62
75130;HTU21D;63703;44.716;37.846;2023-01-30T03:23:52;5.84;80.56
75130;HTU21D;63703;44.716;37.846;2023-01-30T03:26:24;5.87;80.51
75130;HTU21D;63703;44.716;37.846;2023-01-30T03:28:52;5.87;80.42
75130;HTU21D;63703;44.716;37.846;2023-01-30T03:31:19;5.87;80.38
75130;HTU21D;63703;44.716;37.846;2023-01-30T03:33:44;5.87;80.36
75130;HTU21D;63703;44.716;37.846;2023-01-30T03:36:11;5.89;80.35
75130;HTU21D;63703;44.716;37.846;2023-01-30T03:38:37;5.90;80.30
75130;HTU21D;63703;44.716;37.846;2023-01-30T03:41:04;5.93;80.29
75130;HTU21D;63703;44.716;37.846;2023-01-30T03:43:31;5.94;80.26
75130;HTU21D;63703;44.716;37.846;2023-01-30T03:46:01;5.93;80.27
75130;HTU21D;63703;44.716;37.846;2023-01-30T03:48:27;5.95;80.24
75130;HTU21D;63703;44.716;37.846;2023-01-30T03:50:55;5.95;80.28
75130;HTU21D;63703;44.716;37.846;2023-01-30T03:53:21;5.97;80.36
75130;HTU21D;63703;44.716;37.846;2023-01-30T03:55:48;5.97;80.35
75130;HTU21D;63703;44.716;37.846;2023-01-30T03:58:19;6.02;80.45
75130;HTU21D;63703;44.716;37.846;2023-01-30T04:00:45;6.01;80.39
75130;HTU21D;63703;44.716;37.846;2023-01-30T04:03:11;6.11;80.68
75130;HTU21D;63703;44.716;37.846;2023-01-30T04:05:37;6.10;80.62
75130;HTU21D;63703;44.716;37.846;2023-01-30T04:08:07;6.14;80.62
75130;HTU21D;63703;44.716;37.846;2023-01-30T04:10:33;6.17;80.54
75130;HTU21D;63703;44.716;37.846;2023-01-30T04:12:59;6.22;80.79
75130;HTU21D;63703;44.716;37.846;2023-01-30T04:15:25;6.25;80.86
75130;HTU21D;63703;44.716;37.846;2023-01-30T04:18:11;6.24;80.81
75130;HTU21D;63703;44.716;37.846;2023-01-30T04:20:37;6.24;80.80
75130;HTU21D;63703;44.716;37.846;2023-01-30T04:23:03;6.26;80.73
75130;HTU21D;63703;44.716;37.846;2023-01-30T04:25:29;6.27;80.65
75130;HTU21D;63703;44.716;37.846;2023-01-30T04:27:57;6.33;80.83
75130;HTU21D;63703;44.716;37.846;2023-01-30T04:30:27;6.36;80.89
75130;HTU21D;63703;44.716;37.846;2023-01-30T04:33:05;6.43;80.89
75130;HTU21D;63703;44.716;37.846;2023-01-30T04:35:31;6.55;80.40
75130;HTU21D;63703;44.716;37.846;2023-01-30T04:37:58;6.66;79.25
75130;HTU21D;63703;44.716;37.846;2023-01-30T04:40:23;6.73;77.44
75130;HTU21D;63703;44.716;37.846;2023-01-30T04:42:49;6.78;75.54
75130;HTU21D;63703;44.716;37.846;2023-01-30T04:45:45;6.79;75.14
75130;HTU21D;63703;44.716;37.846;2023-01-30T04:48:12;6.76;74.51
75130;HTU21D;63703;44.716;37.846;2023-01-30T04:50:40;6.79;73.68
75130;HTU21D;63703;44.716;37.846;2023-01-30T04:53:07;6.78;73.19
75130;HTU21D;63703;44.716;37.846;2023-01-30T04:55:33;6.74;73.55
75130;HTU21D;63703;44.716;37.846;2023-01-30T04:57:59;6.76;73.65
75130;HTU21D;63703;44.716;37.846;2023-01-30T05:00:25;6.79;73.48
75130;HTU21D;63703;44.716;37.846;2023-01-30T05:02:57;6.76;74.34
75130;HTU21D;63703;44.716;37.846;2023-01-30T05:05:23;6.76;74.86
75130;HTU21D;63703;44.716;37.846;2023-01-30T05:07:49;6.75;75.10
75130;HTU21D;63703;44.716;37.846;2023-01-30T05:10:16;6.70;75.35
75130;HTU21D;63703;44.716;37.846;2023-01-30T05:12:42;6.67;75.43
75130;HTU21D;63703;44.716;37.846;2023-01-30T05:15:09;6.65;75.47
75130;HTU21D;63703;44.716;37.846;2023-01-30T05:17:35;6.63;75.39
75130;HTU21D;63703;44.716;37.846;2023-01-30T05:20:01;6.61;75.38
75130;HTU21D;63703;44.716;37.846;2023-01-30T05:22:27;6.58;75.47
75130;HTU21D;63703;44.716;37.846;2023-01-30T05:24:53;6.59;75.47
75130;HTU21D;63703;44.716;37.846;2023-01-30T05:27:19;6.61;75.56
75130;HTU21D;63703;44.716;37.846;2023-01-30T05:29:45;6.67;75.74
75130;HTU21D;63703;44.716;37.846;2023-01-30T05:32:15;6.68;75.88
75130;HTU21D;63703;44.716;37.846;2023-01-30T05:34:42;6.74;75.93
75130;HTU21D;63703;44.716;37.846;2023-01-30T05:37:09;6.82;76.18
75130;HTU21D;63703;44.716;37.846;2023-01-30T05:39:35;6.85;76.79
75130;HTU21D;63703;44.716;37.846;2023-01-30T05:42:01;6.79;77.00
75130;HTU21D;63703;44.716;37.846;2023-01-30T05:44:27;6.64;77.85
75130;HTU21D;63703;44.716;37.846;2023-01-30T05:46:53;6.55;78.70
75130;HTU21D;63703;44.716;37.846;2023-01-30T05:49:19;6.51;78.43
75130;HTU21D;63703;44.716;37.846;2023-01-30T05:51:45;6.41;78.31
75130;HTU21D;63703;44.716;37.846;2023-01-30T05:54:11;6.28;78.28
75130;HTU21D;63703;44.716;37.846;2023-01-30T05:56:38;6.23;78.06
75130;HTU21D;63703;44.716;37.846;2023-01-30T05:59:04;6.19;78.17
75130;HTU21D;63703;44.716;37.846;2023-01-30T06:01:30;6.23;78.01
75130;HTU21D;63703;44.716;37.846;2023-01-30T06:03:57;6.26;78.18
75130;HTU21D;63703;44.716;37.846;2023-01-30T06:06:24;6.34;78.17
75130;HTU21D;63703;44.716;37.846;2023-01-30T06:08:54;6.35;78.21
75130;HTU21D;63703;44.716;37.846;2023-01-30T06:11:21;6.40;78.27
75130;HTU21D;63703;44.716;37.846;2023-01-30T06:13:47;6.42;78.30
75130;HTU21D;63703;44.716;37.846;2023-01-30T06:16:14;6.46;78.30
75130;HTU21D;63703;44.716;37.846;2023-01-30T06:18:41;6.53;78.31
75130;HTU21D;63703;44.716;37.846;2023-01-30T06:21:07;6.58;78.33
75130;HTU21D;63703;44.716;37.846;2023-01-30T06:23:34;6.67;78.41
75130;HTU21D;63703;44.716;37.846;2023-01-30T06:26:00;6.75;78.48
75130;HTU21D;63703;44.716;37.846;2023-01-30T06:28:26;6.88;78.30
75130;HTU21D;63703;44.716;37.846;2023-01-30T06:30:53;7.03;78.05
75130;HTU21D;63703;44.716;37.846;2023-01-30T06:33:19;7.15;77.82
75130;HTU21D;63703;44.716;37.846;2023-01-30T06:35:48;7.26;77.76
75130;HTU21D;63703;44.716;37.846;2023-01-30T06:38:14;7.32;77.65
75130;HTU21D;63703;44.716;37.846;2023-01-30T06:40:42;7.43;77.49
75130;HTU21D;63703;44.716;37.846;2023-01-30T06:43:08;7.52;76.80
75130;HTU21D;63703;44.716;37.846;2023-01-30T06:45:34;7.59;75.27
75130;HTU21D;63703;44.716;37.846;2023-01-30T06:48:00;7.62;75.07
75130;HTU21D;63703;44.716;37.846;2023-01-30T06:50:27;7.67;74.78
75130;HTU21D;63703;44.716;37.846;2023-01-30T06:52:53;7.68;74.57
75130;HTU21D;63703;44.716;37.846;2023-01-30T06:55:22;7.70;74.46
75130;HTU21D;63703;44.716;37.846;2023-01-30T06:57:49;7.73;73.96
75130;HTU21D;63703;44.716;37.846;2023-01-30T07:00:18;7.76;73.65
75130;HTU21D;63703;44.716;37.846;2023-01-30T07:02:45;7.77;73.43
75130;HTU21D;63703;44.716;37.846;2023-01-30T07:05:11;7.81;73.30
75130;HTU21D;63703;44.716;37.846;2023-01-30T07:07:38;7.87;73.22
75130;HTU21D;63703;44.716;37.846;2023-01-30T07:10:05;7.92;73.22
75130;HTU21D;63703;44.716;37.846;2023-01-30T07:12:32;7.97;72.63
75130;HTU21D;63703;44.716;37.846;2023-01-30T07:14:58;8.01;72.38
75130;HTU21D;63703;44.716;37.846;2023-01-30T07:17:24;8.04;72.49
75130;HTU21D;63703;44.716;37.846;2023-01-30T07:19:50;8.03;72.85
75130;HTU21D;63703;44.716;37.846;2023-01-30T07:22:16;8.05;72.75
75130;HTU21D;63703;44.716;37.846;2023-01-30T07:24:42;8.05;72.89
75130;HTU21D;63703;44.716;37.846;2023-01-30T07:27:09;8.09;73.07
75130;HTU21D;63703;44.716;37.846;2023-01-30T07:29:36;8.19;73.36
75130;HTU21D;63703;44.716;37.846;2023-01-30T07:32:02;8.27;72.36
75130;HTU21D;63703;44.716;37.846;2023-01-30T07:34:29;8.28;71.86
75130;HTU21D;63703;44.716;37.846;2023-01-30T07:36:55;8.27;71.41
75130;HTU21D;63703;44.716;37.846;2023-01-30T07:39:21;8.23;70.84
75130;HTU21D;63703;44.716;37.846;2023-01-30T07:41:47;8.23;71.07
75130;HTU21D;63703;44.716;37.846;2023-01-30T07:44:13;8.24;71.21
75130;HTU21D;63703;44.716;37.846;2023-01-30T07:46:39;8.23;70.77
75130;HTU21D;63703;44.716;37.846;2023-01-30T07:49:06;8.28;70.26
75130;HTU21D;63703;44.716;37.846;2023-01-30T07:51:33;8.27;69.66
75130;HTU21D;63703;44.716;37.846;2023-01-30T07:53:59;8.26;69.84
75130;HTU21D;63703;44.716;37.846;2023-01-30T07:56:27;8.23;69.23
75130;HTU21D;63703;44.716;37.846;2023-01-30T07:58:54;8.30;69.55
75130;HTU21D;63703;44.716;37.846;2023-01-30T08:01:20;8.29;69.53
75130;HTU21D;63703;44.716;37.846;2023-01-30T08:03:46;8.27;69.57
75130;HTU21D;63703;44.716;37.846;2023-01-30T08:06:16;8.27;69.35
75130;HTU21D;63703;44.716;37.846;2023-01-30T08:08:42;8.23;69.55
75130;HTU21D;63703;44.716;37.846;2023-01-30T08:11:09;8.23;69.94
75130;HTU21D;63703;44.716;37.846;2023-01-30T08:13:35;8.26;69.88
75130;HTU21D;63703;44.716;37.846;2023-01-30T08:16:03;8.21;70.19
75130;HTU21D;63703;44.716;37.846;2023-01-30T08:18:31;8.15;70.63
75130;HTU21D;63703;44.716;37.846;2023-01-30T08:21:03;8.16;71.38
75130;HTU21D;63703;44.716;37.846;2023-01-30T08:23:31;8.16;71.41
75130;HTU21D;63703;44.716;37.846;2023-01-30T08:25:59;8.18;71.63
75130;HTU21D;63703;44.716;37.846;2023-01-30T08:28:26;8.21;71.47
75130;HTU21D;63703;44.716;37.846;2023-01-30T08:30:53;8.19;71.87
75130;HTU21D;63703;44.716;37.846;2023-01-30T08:33:20;8.22;72.19
75130;HTU21D;63703;44.716;37.846;2023-01-30T08:35:46;8.28;72.38
75130;HTU21D;63703;44.716;37.846;2023-01-30T08:38:12;8.34;72.15
75130;HTU21D;63703;44.716;37.846;2023-01-30T08:40:39;8.50;71.58
75130;HTU21D;63703;44.716;37.846;2023-01-30T08:43:05;8.63;70.49
75130;HTU21D;63703;44.716;37.846;2023-01-30T08:45:31;8.93;69.96
75130;HTU21D;63703;44.716;37.846;2023-01-30T08:47:58;9.12;69.55
75130;HTU21D;63703;44.716;37.846;2023-01-30T08:50:25;9.19;69.28
75130;HTU21D;63703;44.716;37.846;2023-01-30T08:52:51;9.25;68.45
75130;HTU21D;63703;44.716;37.846;2023-01-30T08:55:17;9.41;68.07
75130;HTU21D;63703;44.716;37.846;2023-01-30T08:57:43;9.44;67.64
75130;HTU21D;63703;44.716;37.846;2023-01-30T09:00:10;9.33;66.96
75130;HTU21D;63703;44.716;37.846;2023-01-30T09:02:36;9.22;67.09
75130;HTU21D;63703;44.716;37.846;2023-01-30T09:05:04;9.09;67.34
75130;HTU21D;63703;44.716;37.846;2023-01-30T09:07:30;9.07;66.81
75130;HTU21D;63703;44.716;37.846;2023-01-30T09:09:56;9.08;66.82
75130;HTU21D;63703;44.716;37.846;2023-01-30T09:12:22;9.15;66.97
75130;HTU21D;63703;44.716;37.846;2023-01-30T09:14:50;9.19;66.20
75130;HTU21D;63703;44.716;37.846;2023-01-30T09:17:18;9.24;65.94
75130;HTU21D;63703;44.716;37.846;2023-01-30T09:19:44;9.26;65.91
75130;HTU21D;63703;44.716;37.846;2023-01-30T09:22:10;9.34;66.14
75130;HTU21D;63703;44.716;37.846;2023-01-30T09:24:36;9.40;66.08
75130;HTU21D;63703;44.716;37.846;2023-01-30T09:27:02;9.41;65.96
75130;HTU21D;63703;44.716;37.846;2023-01-30T09:29:28;9.46;65.82
75130;HTU21D;63703;44.716;37.846;2023-01-30T09:31:55;9.49;65.27
75130;HTU21D;63703;44.716;37.846;2023-01-30T09:34:22;9.57;65.37
75130;HTU21D;63703;44.716;37.846;2023-01-30T09:36:59;9.66;65.06
75130;HTU21D;63703;44.716;37.846;2023-01-30T09:39:27;9.61;65.14
75130;HTU21D;63703;44.716;37.846;2023-01-30T09:41:59;9.53;65.35
75130;HTU21D;63703;44.716;37.846;2023-01-30T09:47:10;9.89;64.98
75130;HTU21D;63703;44.716;37.846;2023-01-30T09:50:03;9.90;62.02
75130;HTU21D;63703;44.716;37.846;2023-01-30T09:52:50;9.66;63.58
75130;HTU21D;63703;44.716;37.846;2023-01-30T09:55:22;9.41;64.69
75130;HTU21D;63703;44.716;37.846;2023-01-30T09:57:50;9.23;65.69
75130;HTU21D;63703;44.716;37.846;2023-01-30T10:00:37;9.17;66.98
75130;HTU21D;63703;44.716;37.846;2023-01-30T10:03:10;8.92;67.95
75130;HTU21D;63703;44.716;37.846;2023-01-30T10:11:18;9.61;68.61
75130;HTU21D;63703;44.716;37.846;2023-01-30T10:16:20;10.51;66.89
75130;HTU21D;63703;44.716;37.846;2023-01-30T10:18:54;10.52;65.30
75130;HTU21D;63703;44.716;37.846;2023-01-30T10:26:46;11.29;63.27
75130;HTU21D;63703;44.716;37.846;2023-01-30T10:29:14;11.41;62.05
75130;HTU21D;63703;44.716;37.846;2023-01-30T10:32:02;11.28;61.25
75130;HTU21D;63703;44.716;37.846;2023-01-30T10:34:41;11.00;61.48
75130;HTU21D;63703;44.716;37.846;2023-01-30T10:37:21;10.71;61.23
75130;HTU21D;63703;44.716;37.846;2023-01-30T10:39:58;10.46;61.97
75130;HTU21D;63703;44.716;37.846;2023-01-30T10:42:30;10.43;62.62
75130;HTU21D;63703;44.716;37.846;2023-01-30T10:45:20;10.56;62.53
75130;HTU21D;63703;44.716;37.846;2023-01-30T10:50:54;11.17;60.80
75130;HTU21D;63703;44.716;37.846;2023-01-30T10:53:27;10.78;61.25
75130;HTU21D;63703;44.716;37.846;2023-01-30T10:58:59;10.07;62.64
75130;HTU21D;63703;44.716;37.846;2023-01-30T11:01:31;9.93;63.43
75130;HTU21D;63703;44.716;37.846;2023-01-30T11:04:11;9.90;63.93
75130;HTU21D;63703;44.716;37.846;2023-01-30T11:06:39;10.89;62.93
75130;HTU21D;63703;44.716;37.846;2023-01-30T11:09:08;12.19;59.42
75130;HTU21D;63703;44.716;37.846;2023-01-30T11:14:12;14.10;54.78
75130;HTU21D;63703;44.716;37.846;2023-01-30T11:16:50;15.56;49.25
75130;HTU21D;63703;44.716;37.846;2023-01-30T11:19:21;16.11;46.69
75130;HTU21D;63703;44.716;37.846;2023-01-30T11:21:59;16.86;44.71
75130;HTU21D;63703;44.716;37.846;2023-01-30T11:24:31;17.65;42.55
75130;HTU21D;63703;44.716;37.846;2023-01-30T11:27:32;18.44;41.32
75130;HTU21D;63703;44.716;37.846;2023-01-30T11:30:18;17.55;42.19
75130;HTU21D;63703;44.716;37.846;2023-01-30T11:32:47;15.84;46.07
75130;HTU21D;63703;44.716;37.846;2023-01-30T11:37:42;13.19;51.43
75130;HTU21D;63703;44.716;37.846;2023-01-30T11:42:50;11.67;56.50
75130;HTU21D;63703;44.716;37.846;2023-01-30T11:45:17;11.01;58.99
75130;HTU21D;63703;44.716;37.846;2023-01-30T11:47:56;10.52;61.99
75130;HTU21D;63703;44.716;37.846;2023-01-30T11:50:27;11.33;61.06
75130;HTU21D;63703;44.716;37.846;2023-01-30T11:52:54;13.30;55.99
75130;HTU21D;63703;44.716;37.846;2023-01-30T11:55:20;14.63;50.72
75130;HTU21D;63703;44.716;37.846;2023-01-30T11:57:51;14.82;51.56
75130;HTU21D;63703;44.716;37.846;2023-01-30T12:02:47;15.80;49.43
75130;HTU21D;63703;44.716;37.846;2023-01-30T12:05:39;15.29;50.76
75130;HTU21D;63703;44.716;37.846;2023-01-30T12:10:54;12.47;53.77
75130;HTU21D;63703;44.716;37.846;2023-01-30T12:16:40;11.07;57.00
75130;HTU21D;63703;44.716;37.846;2023-01-30T12:22:08;10.11;59.12
75130;HTU21D;63703;44.716;37.846;2023-01-30T12:24:40;9.75;60.99
75130;HTU21D;63703;44.716;37.846;2023-01-30T12:30:04;9.79;62.76
75130;HTU21D;63703;44.716;37.846;2023-01-30T12:32:34;10.92;60.73
75130;HTU21D;63703;44.716;37.846;2023-01-30T12:35:06;11.73;60.23
75130;HTU21D;63703;44.716;37.846;2023-01-30T12:37:42;13.54;55.19
75130;HTU21D;63703;44.716;37.846;2023-01-30T12:40:17;15.42;51.70
75130;HTU21D;63703;44.716;37.846;2023-01-30T12:43:10;16.14;46.65
75130;HTU21D;63703;44.716;37.846;2023-01-30T12:46:09;16.69;46.05
75130;HTU21D;63703;44.716;37.846;2023-01-30T12:51:44;17.05;43.26
75130;HTU21D;63703;44.716;37.846;2023-01-30T12:57:17;17.16;43.81
75130;HTU21D;63703;44.716;37.846;2023-01-30T13:05:50;13.62;49.50
75130;HTU21D;63703;44.716;37.846;2023-01-30T13:11:26;12.08;51.82
75130;HTU21D;63703;44.716;37.846;2023-01-30T13:14:04;11.23;54.10
75130;HTU21D;63703;44.716;37.846;2023-01-30T13:16:52;10.58;56.83
75130;HTU21D;63703;44.716;37.846;2023-01-30T13:20:22;10.31;58.64
75130;HTU21D;63703;44.716;37.846;2023-01-30T13:22:53;11.29;57.45
75130;HTU21D;63703;44.716;37.846;2023-01-30T13:25:31;11.44;55.91
75130;HTU21D;63703;44.716;37.846;2023-01-30T13:28:08;10.56;57.90
75130;HTU21D;63703;44.716;37.846;2023-01-30T13:30:38;9.95;59.38
75130;HTU21D;63703;44.716;37.846;2023-01-30T13:33:11;9.52;60.82
75130;HTU21D;63703;44.716;37.846;2023-01-30T13:36:12;9.16;61.99
75130;HTU21D;63703;44.716;37.846;2023-01-30T13:38:44;8.90;61.85
75130;HTU21D;63703;44.716;37.846;2023-01-30T13:41:14;8.70;62.76
75130;HTU21D;63703;44.716;37.846;2023-01-30T13:43:47;8.52;63.48
75130;HTU21D;63703;44.716;37.846;2023-01-30T13:46:20;8.46;63.73
75130;HTU21D;63703;44.716;37.846;2023-01-30T13:49:01;8.39;63.80
75130;HTU21D;63703;44.716;37.846;2023-01-30T13:51:41;8.78;63.47
75130;HTU21D;63703;44.716;37.846;2023-01-30T14:09:48;7.81;67.51
75130;HTU21D;63703;44.716;37.846;2023-01-30T14:12:23;7.70;68.26
75130;HTU21D;63703;44.716;37.846;2023-01-30T14:17:38;7.62;67.63
75130;HTU21D;63703;44.716;37.846;2023-01-30T14:20:15;7.62;68.99
75130;HTU21D;63703;44.716;37.846;2023-01-30T14:27:49;7.53;68.55
75130;HTU21D;63703;44.716;37.846;2023-01-30T14:38:27;7.50;69.19
75130;HTU21D;63703;44.716;37.846;2023-01-30T14:48:50;7.50;69.51
75130;HTU21D;63703;44.716;37.846;2023-01-30T15:13:00;7.48;69.58
75130;HTU21D;63703;44.716;37.846;2023-01-30T15:18:20;7.43;69.48
75130;HTU21D;63703;44.716;37.846;2023-01-30T15:24:11;7.43;68.07
75130;HTU21D;63703;44.716;37.846;2023-01-30T15:26:49;7.39;68.62
75130;HTU21D;63703;44.716;37.846;2023-01-30T15:34:54;7.42;68.07
75130;HTU21D;63703;44.716;37.846;2023-01-30T15:37:45;7.43;67.84
75130;HTU21D;63703;44.716;37.846;2023-01-30T15:45:53;7.39;68.71
75130;HTU21D;63703;44.716;37.846;2023-01-30T15:48:47;7.34;68.59
75130;HTU21D;63703;44.716;37.846;2023-01-30T15:51:18;7.33;68.39
75130;HTU21D;63703;44.716;37.846;2023-01-30T15:53:47;7.34;68.31
75130;HTU21D;63703;44.716;37.846;2023-01-30T15:56:18;7.37;68.33
75130;HTU21D;63703;44.716;37.846;2023-01-30T15:58:45;7.39;68.15
75130;HTU21D;63703;44.716;37.846;2023-01-30T16:01:17;7.42;67.15
75130;HTU21D;63703;44.716;37.846;2023-01-30T16:03:44;7.44;66.96
75130;HTU21D;63703;44.716;37.846;2023-01-30T16:06:32;7.44;68.46
75130;HTU21D;63703;44.716;37.846;2023-01-30T16:09:00;7.42;68.49
75130;HTU21D;63703;44.716;37.846;2023-01-30T16:11:37;7.41;68.62
75130;HTU21D;63703;44.716;37.846;2023-01-30T16:14:04;7.39;68.55
75130;HTU21D;63703;44.716;37.846;2023-01-30T16:16:31;7.39;68.47
75130;HTU21D;63703;44.716;37.846;2023-01-30T16:19:00;7.39;68.58
75130;HTU21D;63703;44.716;37.846;2023-01-30T16:24:12;7.44;68.49
75130;HTU21D;63703;44.716;37.846;2023-01-30T16:26:47;7.41;67.92
75130;HTU21D;63703;44.716;37.846;2023-01-30T16:29:20;7.38;68.39
75130;HTU21D;63703;44.716;37.846;2023-01-30T16:31:48;7.35;68.86
75130;HTU21D;63703;44.716;37.846;2023-01-30T16:34:31;7.38;68.78
75130;HTU21D;63703;44.716;37.846;2023-01-30T16:37:24;7.39;69.50
75130;HTU21D;63703;44.716;37.846;2023-01-30T16:42:36;7.34;67.75
75130;HTU21D;63703;44.716;37.846;2023-01-30T16:47:38;7.33;66.86
75130;HTU21D;63703;44.716;37.846;2023-01-30T16:50:20;7.32;66.57
75130;HTU21D;63703;44.716;37.846;2023-01-30T16:52:50;7.32;66.55
75130;HTU21D;63703;44.716;37.846;2023-01-30T16:55:20;7.32;66.36
75130;HTU21D;63703;44.716;37.846;2023-01-30T16:57:58;7.32;66.68
75130;HTU21D;63703;44.716;37.846;2023-01-30T17:00:36;7.33;67.23
75130;HTU21D;63703;44.716;37.846;2023-01-30T17:03:07;7.33;66.64
75130;HTU21D;63703;44.716;37.846;2023-01-30T17:05:43;7.32;66.77
75130;HTU21D;63703;44.716;37.846;2023-01-30T17:11:03;7.34;67.75
75130;HTU21D;63703;44.716;37.846;2023-01-30T17:13:41;7.33;68.14
75130;HTU21D;63703;44.716;37.846;2023-01-30T17:16:29;7.33;69.45
75130;HTU21D;63703;44.716;37.846;2023-01-30T17:18:56;7.31;69.07
75130;HTU21D;63703;44.716;37.846;2023-01-30T17:21:25;7.32;69.77
75130;HTU21D;63703;44.716;37.846;2023-01-30T17:24:00;7.34;69.90
75130;HTU21D;63703;44.716;37.846;2023-01-30T17:26:27;7.34;69.55
75130;HTU21D;63703;44.716;37.846;2023-01-30T17:28:54;7.35;69.78
75130;HTU21D;63703;44.716;37.846;2023-01-30T17:31:20;7.37;69.74
75130;HTU21D;63703;44.716;37.846;2023-01-30T17:33:46;7.37;69.98
75130;HTU21D;63703;44.716;37.846;2023-01-30T17:38:47;7.34;70.07
75130;HTU21D;63703;44.716;37.846;2023-01-30T17:43:44;7.34;69.09
75130;HTU21D;63703;44.716;37.846;2023-01-30T17:46:11;7.33;68.84
75130;HTU21D;63703;44.716;37.846;2023-01-30T17:48:37;7.40;68.20
75130;HTU21D;63703;44.716;37.846;2023-01-30T17:51:03;7.32;68.37
75130;HTU21D;63703;44.716;37.846;2023-01-30T17:53:29;7.34;68.24
75130;HTU21D;63703;44.716;37.846;2023-01-30T17:55:55;7.35;68.73
75130;HTU21D;63703;44.716;37.846;2023-01-30T17:58:21;7.35;68.81
75130;HTU21D;63703;44.716;37.846;2023-01-30T18:00:47;7.33;69.11
75130;HTU21D;63703;44.716;37.846;2023-01-30T18:03:13;7.32;68.94
75130;HTU21D;63703;44.716;37.846;2023-01-30T18:05:40;7.31;68.75
75130;HTU21D;63703;44.716;37.846;2023-01-30T18:08:06;7.28;68.52
75130;HTU21D;63703;44.716;37.846;2023-01-30T18:10:32;7.27;68.14
75130;HTU21D;63703;44.716;37.846;2023-01-30T18:12:58;7.28;68.05
75130;HTU21D;63703;44.716;37.846;2023-01-30T18:15:24;7.31;67.98
75130;HTU21D;63703;44.716;37.846;2023-01-30T18:17:50;7.27;68.05
75130;HTU21D;63703;44.716;37.846;2023-01-30T18:20:19;7.26;67.98
75130;HTU21D;63703;44.716;37.846;2023-01-30T18:22:45;7.25;67.99
75130;HTU21D;63703;44.716;37.846;2023-01-30T18:25:11;7.22;67.69
75130;HTU21D;63703;44.716;37.846;2023-01-30T18:27:40;7.17;67.69
75130;HTU21D;63703;44.716;37.846;2023-01-30T18:30:11;7.15;67.90
75130;HTU21D;63703;44.716;37.846;2023-01-30T18:32:38;7.15;68.05